Terminal Aerodrome Forecast
Issued by NWS

Home | Current Version | Previous Version | Text Only | Print | Product List | Glossary On
Versions: 1 2 3 4 5 6 7 8 9 10 11 12 13
000
FTUS46 KPDT 050520
TAFRDM
TAF
KRDM 050520Z 0506/0606 30005KT P6SM SCT200
     FM050900 16005KT P6SM SCT200
     FM051800 33010KT P6SM SCT200
     FM060400 32005KT P6SM FEW200=

USA.gov is the U.S. government's official web portal to all federal, state and local government web resources and services.